Aeroporto :
LOGIN :

Iscrizione | Disclaimer

   EN    FR    IT 

 










Sommario :    VFR   VFR Marginale   IFR   IFR Intensivo   IFR Molto Intensivo
Visibilità : 
Base nubi : 
>= 8 km
>= 3000ft
5 / 8 km
1000 / 3000 ft
1500m / 5 km
500 / 1000 ft
800 / 1500m
200 / 500 ft
< 800m
< 200 ft
Simboli :   Temporali  Nebbia  Neve Forte  Precipitazioni Forti  Vento > 20 kt
SIGMETs :   Varie  Temporali  Ghiacco  Turbolenza  Onda orograficha  Ceneri Vulcaniche







- Altitudine del aeroporto : 242 ft
- Codice IATA : DUB


EIDW - Dublin

ULTIMO METAR :
  • 222130Z 23004KT 190V280 9999 FEW018 BKN060 18/15 Q1020 NOSIG

METARs OBSOLETI :
  • 222100Z 22004KT 160V280 9999 FEW018 BKN060 18/15 Q1020 NOSIG
  • 222030Z 22006KT 190V280 9999 FEW018 BKN060 BKN200 19/15 Q1020 NOSIG
  • 222000Z 21005KT 170V260 9999 FEW018 SCT060 BKN200 19/15 Q1020 NOSIG
  • 221930Z 21006KT 170V240 9999 FEW018 SCT030 BKN200 19/15 Q1020 NOSIG
  • 221900Z 24007KT 170V280 9999 FEW018 SCT030 BKN200 19/15 Q1019 NOSIG

TAF TAF EIDW
Valido dal 22 a 18 ore il 23 a 18 ore UTC


221700Z 2218/2318 25015G25KT 9999 FEW015 SCT025
BECMG 2218/2221 22010KT
PROB40
TEMPO 2301/2308 BKN010
Nessun NOTAM noto per questo aeroporto.



MetMap, La meteo Aeronautica in un colpo d'occhio ! - Copyright ORBIFLY Dicembre 2007 - Disclaimer

ORBIFLY MET'MAP TEAM :

Programmazione e sviluppo : Alexandra Zaïnal
Concezione e sviluppo : Baudouin d'Aumeries
Co-Programmazione e sviluppo : Marc-Olivier Méhu
Supporto tecnico e logistico : Manuel Goepfert
Aiuto per la traduzione : Arnaldo La Scala

Contatto : metmap@orbifly.com




FONTI E CREDITI :

   NOAA